Time,TemperatureF,DewpointF,PressureIn,WindDirection,WindDirectionDegrees,WindSpeedMPH,WindSpeedGustMPH,Humidity,HourlyPrecipIn,Conditions,Clouds,dailyrainin,SoftwareType,DateUTC
2013-08-13 00:05:00,77.3,72.8,29.92,SSE,155,6.0,7.0,86,0.00,,,0.00,Wunderground v.1.15,2013-08-13 05:05:00,
2013-08-13 00:10:00,77.3,72.8,29.91,SE,146,6.0,6.0,86,0.00,,,0.00,Wunderground v.1.15,2013-08-13 05:10:00,
2013-08-13 00:15:00,77.3,72.8,29.92,SE,130,5.0,6.0,86,0.00,,,0.00,Wunderground v.1.15,2013-08-13 05:15:00,
2013-08-13 00:20:00,77.4,72.9,29.92,SE,129,4.0,4.0,86,0.00,,,0.00,Wunderground v.1.15,2013-08-13 05:20:00,
2013-08-13 00:25:00,77.5,73.0,29.92,South,169,3.0,4.0,86,0.00,,,0.00,Wunderground v.1.15,2013-08-13 05:25:00,
2013-08-13 00:30:00,77.6,73.1,29.92,SSE,162,3.0,3.0,86,0.00,,,0.00,Wunderground v.1.15,2013-08-13 05:30:00,
2013-08-13 00:35:00,77.6,73.1,29.92,SSE,165,3.0,3.0,86,0.00,,,0.00,Wunderground v.1.15,2013-08-13 05:35:00,
2013-08-13 00:45:00,77.6,73.1,29.92,South,190,3.0,4.0,86,0.00,,,0.00,Wunderground v.1.15,2013-08-13 05:45:00,
2013-08-13 00:55:00,77.3,73.1,29.93,South,190,2.0,3.0,87,0.00,,,0.00,Wunderground v.1.15,2013-08-13 05:55:00,
2013-08-13 01:00:00,77.3,73.1,29.93,South,190,1.0,1.0,87,0.00,,,0.00,Wunderground v.1.15,2013-08-13 06:00:00,
2013-08-13 01:05:00,77.3,73.1,29.93,South,190,0.0,1.0,87,0.00,,,0.00,Wunderground v.1.15,2013-08-13 06:05:00,
2013-08-13 01:15:00,77.5,73.3,29.94,South,190,0.0,0.0,87,0.00,,,0.00,Wunderground v.1.15,2013-08-13 06:15:00,
2013-08-13 01:25:00,77.7,73.5,29.94,NNW,341,0.0,3.0,87,0.00,,,0.00,Wunderground v.1.15,2013-08-13 06:25:00,
2013-08-13 01:30:00,77.8,74.0,29.95,NW,315,2.0,5.0,88,0.00,,,0.00,Wunderground v.1.15,2013-08-13 06:30:00,
2013-08-13 01:35:00,77.6,73.8,29.95,NNW,343,4.0,5.0,88,0.00,,,0.00,Wunderground v.1.15,2013-08-13 06:35:00,
2013-08-13 01:45:00,77.4,73.9,29.97,NW,311,3.0,6.0,89,0.00,,,0.00,Wunderground v.1.15,2013-08-13 06:45:00,
2013-08-13 01:50:00,77.2,73.4,29.96,NW,322,4.0,4.0,88,0.00,,,0.00,Wunderground v.1.15,2013-08-13 06:50:00,
2013-08-13 01:55:00,77.2,73.4,29.96,NNW,339,3.0,4.0,88,0.00,,,0.00,Wunderground v.1.15,2013-08-13 06:55:00,
2013-08-13 02:00:00,77.3,73.5,29.96,West,261,2.0,2.0,88,0.00,,,0.00,Wunderground v.1.15,2013-08-13 07:00:00,
2013-08-13 02:05:00,77.3,73.5,29.96,WNW,298,2.0,3.0,88,0.00,,,0.00,Wunderground v.1.15,2013-08-13 07:05:00,
2013-08-13 02:10:00,77.0,73.2,29.96,NW,311,2.0,2.0,88,0.00,,,0.01,Wunderground v.1.15,2013-08-13 07:10:00,
2013-08-13 02:15:00,76.7,73.2,29.95,NW,313,2.0,2.0,89,0.09,,,0.02,Wunderground v.1.15,2013-08-13 07:15:00,
2013-08-13 02:25:00,76.4,73.2,29.94,NW,317,1.0,1.0,90,0.06,,,0.03,Wunderground v.1.15,2013-08-13 07:25:00,
2013-08-13 02:30:00,76.4,73.2,29.94,NW,315,0.0,1.0,90,0.06,,,0.03,Wunderground v.1.15,2013-08-13 07:30:00,
2013-08-13 02:35:00,76.4,73.2,29.92,NW,315,1.0,2.0,90,0.06,,,0.04,Wunderground v.1.15,2013-08-13 07:35:00,
2013-08-13 02:40:00,76.4,73.2,29.92,South,189,2.0,2.0,90,0.06,,,0.04,Wunderground v.1.15,2013-08-13 07:40:00,
2013-08-13 02:45:00,76.3,73.5,29.93,South,189,1.0,2.0,91,0.05,,,0.04,Wunderground v.1.15,2013-08-13 07:45:00,
2013-08-13 02:50:00,76.3,73.5,29.92,South,189,0.0,0.0,91,0.04,,,0.05,Wunderground v.1.15,2013-08-13 07:50:00,
2013-08-13 03:00:00,76.3,73.5,29.91,SE,140,1.0,1.0,91,0.04,,,0.05,Wunderground v.1.15,2013-08-13 08:00:00,
2013-08-13 03:05:00,76.1,73.3,29.91,SE,139,1.0,2.0,91,0.05,,,0.06,Wunderground v.1.15,2013-08-13 08:05:00,
2013-08-13 03:10:00,76.0,73.5,29.92,NNE,32,1.0,2.0,92,0.05,,,0.06,Wunderground v.1.15,2013-08-13 08:10:00,
2013-08-13 03:15:00,75.9,73.4,29.91,NNE,32,1.0,2.0,92,0.06,,,0.07,Wunderground v.1.15,2013-08-13 08:15:00,
2013-08-13 03:20:00,75.8,73.6,29.91,NE,51,1.0,2.0,93,0.06,,,0.07,Wunderground v.1.15,2013-08-13 08:20:00,
2013-08-13 03:25:00,75.9,73.7,29.91,NE,52,1.0,2.0,93,0.05,,,0.07,Wunderground v.1.15,2013-08-13 08:25:00,
2013-08-13 03:35:00,76.0,73.8,29.91,ENE,72,1.0,3.0,93,0.00,,,0.07,Wunderground v.1.15,2013-08-13 08:35:00,
2013-08-13 03:40:00,75.9,73.7,29.91,ENE,72,1.0,1.0,93,0.00,,,0.07,Wunderground v.1.15,2013-08-13 08:40:00,
2013-08-13 03:45:00,75.8,73.6,29.91,ENE,72,1.0,1.0,93,0.00,,,0.07,Wunderground v.1.15,2013-08-13 08:45:00,
2013-08-13 03:50:00,76.0,73.8,29.90,ENE,72,1.0,1.0,93,0.00,,,0.07,Wunderground v.1.15,2013-08-13 08:50:00,
2013-08-13 03:55:00,76.1,73.9,29.90,ENE,72,1.0,1.0,93,0.00,,,0.07,Wunderground v.1.15,2013-08-13 08:55:00,
2013-08-13 04:05:00,75.9,73.7,29.90,ENE,72,0.0,0.0,93,0.00,,,0.07,Wunderground v.1.15,2013-08-13 09:05:00,
2013-08-13 04:15:00,75.8,73.6,29.90,East,82,1.0,1.0,93,0.00,,,0.07,Wunderground v.1.15,2013-08-13 09:15:00,
2013-08-13 04:20:00,75.8,73.3,29.90,ESE,116,1.0,1.0,92,0.00,,,0.07,Wunderground v.1.15,2013-08-13 09:20:00,
2013-08-13 04:30:00,76.2,73.4,29.89,SE,140,1.0,2.0,91,0.00,,,0.07,Wunderground v.1.15,2013-08-13 09:30:00,
2013-08-13 04:35:00,76.3,73.5,29.89,SE,143,2.0,2.0,91,0.00,,,0.07,Wunderground v.1.15,2013-08-13 09:35:00,
2013-08-13 04:45:00,76.4,73.2,29.89,SE,135,1.0,2.0,90,0.00,,,0.07,Wunderground v.1.15,2013-08-13 09:45:00,
2013-08-13 04:50:00,76.4,73.6,29.89,SE,135,1.0,1.0,91,0.00,,,0.07,Wunderground v.1.15,2013-08-13 09:50:00,
2013-08-13 04:55:00,76.3,73.5,29.89,SE,135,0.0,1.0,91,0.00,,,0.07,Wunderground v.1.15,2013-08-13 09:55:00,
2013-08-13 05:00:00,76.2,73.4,29.89,SE,135,1.0,2.0,91,0.00,,,0.07,Wunderground v.1.15,2013-08-13 10:00:00,
2013-08-13 05:05:00,76.0,73.5,29.89,SE,135,0.0,2.0,92,0.00,,,0.07,Wunderground v.1.15,2013-08-13 10:05:00,
2013-08-13 05:10:00,75.8,73.3,29.89,SE,135,1.0,1.0,92,0.00,,,0.07,Wunderground v.1.15,2013-08-13 10:10:00,
2013-08-13 05:20:00,75.9,73.4,29.89,SE,131,2.0,2.0,92,0.00,,,0.07,Wunderground v.1.15,2013-08-13 10:20:00,
2013-08-13 05:25:00,75.8,73.3,29.89,SE,131,2.0,2.0,92,0.00,,,0.07,Wunderground v.1.15,2013-08-13 10:25:00,
2013-08-13 05:30:00,75.8,73.6,29.89,SE,131,2.0,2.0,93,0.00,,,0.07,Wunderground v.1.15,2013-08-13 10:30:00,
2013-08-13 05:35:00,75.9,73.7,29.90,SE,131,1.0,2.0,93,0.00,,,0.07,Wunderground v.1.15,2013-08-13 10:35:00,
2013-08-13 05:40:00,75.8,73.6,29.90,SE,130,1.0,3.0,93,0.00,,,0.07,Wunderground v.1.15,2013-08-13 10:40:00,
2013-08-13 05:45:00,75.7,73.5,29.90,ESE,104,2.0,3.0,93,0.00,,,0.07,Wunderground v.1.15,2013-08-13 10:45:00,
2013-08-13 05:55:00,75.6,73.4,29.91,East,89,2.0,3.0,93,0.00,,,0.07,Wunderground v.1.15,2013-08-13 10:55:00,
2013-08-13 06:00:00,75.6,73.4,29.91,East,86,2.0,2.0,93,0.00,,,0.07,Wunderground v.1.15,2013-08-13 11:00:00,
2013-08-13 06:05:00,75.7,73.5,29.91,East,84,2.0,2.0,93,0.00,,,0.07,Wunderground v.1.15,2013-08-13 11:05:00,
2013-08-13 06:10:00,75.7,73.5,29.92,NE,46,2.0,2.0,93,0.00,,,0.07,Wunderground v.1.15,2013-08-13 11:10:00,
2013-08-13 06:15:00,75.7,73.8,29.91,East,83,2.0,2.0,94,0.00,,,0.07,Wunderground v.1.15,2013-08-13 11:15:00,
2013-08-13 06:20:00,75.5,73.7,29.91,East,86,3.0,3.0,94,0.00,,,0.07,Wunderground v.1.15,2013-08-13 11:20:00,
2013-08-13 06:25:00,75.5,73.7,29.92,ENE,67,3.0,3.0,94,0.00,,,0.07,Wunderground v.1.15,2013-08-13 11:25:00,
2013-08-13 06:30:00,75.3,73.5,29.92,East,93,3.0,6.0,94,0.00,,,0.07,Wunderground v.1.15,2013-08-13 11:30:00,
2013-08-13 06:35:00,75.2,73.4,29.92,NNE,28,4.0,6.0,94,0.00,,,0.07,Wunderground v.1.15,2013-08-13 11:35:00,
2013-08-13 06:40:00,75.1,73.3,29.92,East,96,4.0,7.0,94,0.00,,,0.07,Wunderground v.1.15,2013-08-13 11:40:00,
2013-08-13 06:50:00,74.9,73.1,29.93,East,83,4.0,7.0,94,0.00,,,0.07,Wunderground v.1.15,2013-08-13 11:50:00,
2013-08-13 06:55:00,74.8,73.0,29.93,ESE,111,5.0,7.0,94,0.00,,,0.07,Wunderground v.1.15,2013-08-13 11:55:00,
2013-08-13 07:05:00,74.8,73.0,29.94,East,80,3.0,10.0,94,0.00,,,0.07,Wunderground v.1.15,2013-08-13 12:05:00,
2013-08-13 07:10:00,74.7,72.9,29.94,East,96,4.0,5.0,94,0.00,,,0.07,Wunderground v.1.15,2013-08-13 12:10:00,
2013-08-13 07:15:00,74.7,72.9,29.94,NE,49,4.0,5.0,94,0.00,,,0.07,Wunderground v.1.15,2013-08-13 12:15:00,
2013-08-13 07:20:00,74.6,72.8,29.94,NNE,32,4.0,4.0,94,0.00,,,0.07,Wunderground v.1.15,2013-08-13 12:20:00,
2013-08-13 07:30:00,74.4,72.6,29.95,NE,44,5.0,7.0,94,0.00,,,0.07,Wunderground v.1.15,2013-08-13 12:30:00,
2013-08-13 07:35:00,74.4,72.6,29.95,NE,46,7.0,7.0,94,0.00,,,0.07,Wunderground v.1.15,2013-08-13 12:35:00,
2013-08-13 07:40:00,74.3,72.5,29.95,NNE,31,7.0,7.0,94,0.00,,,0.07,Wunderground v.1.15,2013-08-13 12:40:00,
2013-08-13 07:45:00,74.2,72.4,29.95,ENE,61,8.0,12.0,94,0.00,,,0.07,Wunderground v.1.15,2013-08-13 12:45:00,
2013-08-13 07:50:00,74.2,72.4,29.96,NE,34,9.0,15.0,94,0.00,,,0.07,Wunderground v.1.15,2013-08-13 12:50:00,
2013-08-13 08:00:00,74.4,72.6,29.97,NNE,32,9.0,11.0,94,0.00,,,0.07,Wunderground v.1.15,2013-08-13 13:00:00,
2013-08-13 08:05:00,74.5,72.7,29.96,NE,34,8.0,11.0,94,0.00,,,0.07,Wunderground v.1.15,2013-08-13 13:05:00,
2013-08-13 08:10:00,74.6,72.4,29.97,NE,42,8.0,8.0,93,0.00,,,0.07,Wunderground v.1.15,2013-08-13 13:10:00,
2013-08-13 08:15:00,74.6,72.4,29.97,ENE,57,8.0,9.0,93,0.00,,,0.07,Wunderground v.1.15,2013-08-13 13:15:00,
2013-08-13 08:20:00,74.7,72.2,29.98,NE,36,9.0,9.0,92,0.00,,,0.07,Wunderground v.1.15,2013-08-13 13:20:00,
2013-08-13 08:25:00,74.7,72.2,29.98,NNE,25,8.0,9.0,92,0.00,,,0.07,Wunderground v.1.15,2013-08-13 13:25:00,
2013-08-13 08:35:00,74.7,72.2,29.98,NE,38,8.0,11.0,92,0.00,,,0.07,Wunderground v.1.15,2013-08-13 13:35:00,
2013-08-13 08:45:00,74.8,72.3,29.98,ENE,58,7.0,8.0,92,0.00,,,0.07,Wunderground v.1.15,2013-08-13 13:45:00,
2013-08-13 08:49:00,74.9,72.4,29.99,NE,55,6.0,6.0,92,0.00,,,0.07,Wunderground v.1.15,2013-08-13 13:49:00,
2013-08-13 08:55:00,75.0,72.5,29.99,NE,41,6.0,8.0,92,0.00,,,0.07,Wunderground v.1.15,2013-08-13 13:55:00,
2013-08-13 09:00:00,75.0,72.5,29.99,NE,41,7.0,7.0,92,0.00,,,0.07,Wunderground v.1.15,2013-08-13 14:00:00,
2013-08-13 09:05:00,75.2,72.7,29.99,East,86,7.0,8.0,92,0.00,,,0.07,Wunderground v.1.15,2013-08-13 14:05:00,
2013-08-13 09:10:00,75.3,72.5,29.99,NE,54,7.0,7.0,91,0.00,,,0.07,Wunderground v.1.15,2013-08-13 14:10:00,
2013-08-13 09:15:00,75.4,72.6,30.00,East,92,7.0,8.0,91,0.00,,,0.07,Wunderground v.1.15,2013-08-13 14:15:00,
2013-08-13 09:25:00,75.5,72.7,29.99,ENE,72,7.0,9.0,91,0.00,,,0.07,Wunderground v.1.15,2013-08-13 14:25:00,
2013-08-13 09:30:00,75.6,72.5,30.00,ENE,63,7.0,7.0,90,0.00,,,0.07,Wunderground v.1.15,2013-08-13 14:30:00,
2013-08-13 09:35:00,75.8,73.0,29.99,NNE,28,5.0,7.0,91,0.00,,,0.07,Wunderground v.1.15,2013-08-13 14:35:00,
2013-08-13 09:40:00,76.0,72.9,29.99,NE,40,5.0,6.0,90,0.00,,,0.07,Wunderground v.1.15,2013-08-13 14:40:00,
2013-08-13 09:50:00,76.0,72.5,30.00,East,98,7.0,9.0,89,0.00,,,0.07,Wunderground v.1.15,2013-08-13 14:50:00,
2013-08-13 09:55:00,75.8,72.3,30.00,NE,36,7.0,11.0,89,0.00,,,0.07,Wunderground v.1.15,2013-08-13 14:55:00,
2013-08-13 10:05:00,76.4,72.6,29.99,East,79,7.0,7.0,88,0.00,,,0.07,Wunderground v.1.15,2013-08-13 15:05:00,
2013-08-13 10:10:00,77.0,72.8,29.99,SE,142,7.0,7.0,87,0.00,,,0.07,Wunderground v.1.15,2013-08-13 15:10:00,
2013-08-13 10:20:00,77.3,73.1,29.99,ENE,71,7.0,7.0,87,0.00,,,0.07,Wunderground v.1.15,2013-08-13 15:20:00,
2013-08-13 10:30:00,77.4,72.5,29.99,ESE,105,6.0,8.0,85,0.00,,,0.07,Wunderground v.1.15,2013-08-13 15:30:00,
2013-08-13 10:35:00,77.8,73.3,30.00,ESE,114,5.0,8.0,86,0.00,,,0.07,Wunderground v.1.15,2013-08-13 15:35:00,
2013-08-13 10:45:00,78.1,73.2,30.00,East,84,7.0,8.0,85,0.00,,,0.07,Wunderground v.1.15,2013-08-13 15:45:00,
2013-08-13 10:50:00,78.3,73.1,30.00,East,98,6.0,6.0,84,0.00,,,0.07,Wunderground v.1.15,2013-08-13 15:50:00,
2013-08-13 10:55:00,78.8,73.2,30.00,ESE,122,5.0,6.0,83,0.00,,,0.07,Wunderground v.1.15,2013-08-13 15:55:00,
2013-08-13 11:05:00,79.3,73.7,30.01,ESE,111,4.0,4.0,83,0.00,,,0.07,Wunderground v.1.15,2013-08-13 16:05:00,
2013-08-13 11:15:00,79.3,73.3,30.02,ENE,65,5.0,5.0,82,0.00,,,0.07,Wunderground v.1.15,2013-08-13 16:15:00,
2013-08-13 11:25:00,79.2,73.2,30.02,NNE,32,5.0,7.0,82,0.00,,,0.07,Wunderground v.1.15,2013-08-13 16:25:00,
2013-08-13 11:30:00,79.2,73.2,30.02,NE,49,5.0,5.0,82,0.00,,,0.07,Wunderground v.1.15,2013-08-13 16:30:00,
2013-08-13 11:40:00,79.2,72.9,30.02,East,92,5.0,5.0,81,0.00,,,0.07,Wunderground v.1.15,2013-08-13 16:40:00,
2013-08-13 11:45:00,79.4,73.1,30.01,ENE,74,6.0,6.0,81,0.00,,,0.07,Wunderground v.1.15,2013-08-13 16:45:00,
2013-08-13 11:55:00,79.8,73.1,30.01,NNE,29,5.0,7.0,80,0.00,,,0.07,Wunderground v.1.15,2013-08-13 16:55:00,
2013-08-13 12:00:00,79.9,73.5,30.02,East,86,4.0,6.0,81,0.00,,,0.07,Wunderground v.1.15,2013-08-13 17:00:00,
2013-08-13 12:15:00,80.5,73.4,30.02,NE,38,4.0,5.0,79,0.00,,,0.07,Wunderground v.1.15,2013-08-13 17:15:00,
2013-08-13 12:25:00,80.2,73.1,30.01,East,82,6.0,6.0,79,0.00,,,0.07,Wunderground v.1.15,2013-08-13 17:25:00,
2013-08-13 12:30:00,80.8,73.3,30.01,East,87,4.0,4.0,78,0.00,,,0.07,Wunderground v.1.15,2013-08-13 17:30:00,
2013-08-13 12:35:00,81.1,73.6,30.01,North,5,4.0,4.0,78,0.00,,,0.07,Wunderground v.1.15,2013-08-13 17:35:00,
2013-08-13 12:45:00,81.3,73.0,30.01,East,98,4.0,6.0,76,0.00,,,0.07,Wunderground v.1.15,2013-08-13 17:45:00,
2013-08-13 12:50:00,81.2,72.9,30.00,NE,42,3.0,8.0,76,0.00,,,0.07,Wunderground v.1.15,2013-08-13 17:50:00,
2013-08-13 12:55:00,81.2,72.9,30.00,SE,143,4.0,8.0,76,0.00,,,0.07,Wunderground v.1.15,2013-08-13 17:55:00,
2013-08-13 13:05:00,81.8,73.1,30.00,NE,51,4.0,5.0,75,0.00,,,0.07,Wunderground v.1.15,2013-08-13 18:05:00,
2013-08-13 13:10:00,82.1,73.4,29.99,ESE,103,3.0,3.0,75,0.00,,,0.07,Wunderground v.1.15,2013-08-13 18:10:00,
2013-08-13 13:15:00,82.8,73.7,29.99,East,97,2.0,3.0,74,0.00,,,0.07,Wunderground v.1.15,2013-08-13 18:15:00,
2013-08-13 13:25:00,82.7,73.2,29.99,East,86,3.0,5.0,73,0.00,,,0.07,Wunderground v.1.15,2013-08-13 18:25:00,
2013-08-13 13:30:00,82.9,72.9,29.98,ESE,106,3.0,5.0,72,0.00,,,0.07,Wunderground v.1.15,2013-08-13 18:30:00,
2013-08-13 13:40:00,83.4,73.4,29.98,South,171,3.0,4.0,72,0.00,,,0.07,Wunderground v.1.15,2013-08-13 18:40:00,
2013-08-13 13:45:00,83.7,73.3,29.98,SSE,161,4.0,4.0,71,0.00,,,0.07,Wunderground v.1.15,2013-08-13 18:45:00,
2013-08-13 13:50:00,83.8,73.4,29.97,NE,53,4.0,4.0,71,0.00,,,0.07,Wunderground v.1.15,2013-08-13 18:50:00,
2013-08-13 13:55:00,84.3,73.4,29.97,NE,34,3.0,4.0,70,0.00,,,0.07,Wunderground v.1.15,2013-08-13 18:55:00,
2013-08-13 14:05:00,84.4,73.5,29.97,East,94,3.0,6.0,70,0.00,,,0.07,Wunderground v.1.15,2013-08-13 19:05:00,
2013-08-13 14:10:00,84.5,73.2,29.97,NNE,15,3.0,6.0,69,0.00,,,0.07,Wunderground v.1.15,2013-08-13 19:10:00,
2013-08-13 14:15:00,84.8,72.6,29.96,NNE,28,3.0,6.0,67,0.00,,,0.07,Wunderground v.1.15,2013-08-13 19:15:00,
2013-08-13 14:20:00,85.1,73.3,29.96,NNE,17,3.0,3.0,68,0.00,,,0.07,Wunderground v.1.15,2013-08-13 19:20:00,
2013-08-13 14:25:00,85.5,72.8,29.96,East,83,3.0,3.0,66,0.00,,,0.07,Wunderground v.1.15,2013-08-13 19:25:00,
2013-08-13 14:30:00,85.7,73.5,29.96,NE,44,2.0,3.0,67,0.00,,,0.07,Wunderground v.1.15,2013-08-13 19:30:00,
2013-08-13 14:35:00,86.1,73.0,29.95,NE,53,3.0,5.0,65,0.00,,,0.07,Wunderground v.1.15,2013-08-13 19:35:00,
2013-08-13 14:45:00,85.5,72.8,29.95,East,96,4.0,5.0,66,0.00,,,0.07,Wunderground v.1.15,2013-08-13 19:45:00,
2013-08-13 14:50:00,85.7,73.0,29.95,ESE,107,3.0,3.0,66,0.00,,,0.07,Wunderground v.1.15,2013-08-13 19:50:00,
2013-08-13 14:55:00,85.9,72.3,29.95,NNE,15,4.0,6.0,64,0.00,,,0.07,Wunderground v.1.15,2013-08-13 19:55:00,
2013-08-13 15:05:00,86.0,72.9,29.94,NNW,347,6.0,7.0,65,0.00,,,0.07,Wunderground v.1.15,2013-08-13 20:05:00,
2013-08-13 15:10:00,86.5,72.9,29.94,NE,40,5.0,5.0,64,0.00,,,0.07,Wunderground v.1.15,2013-08-13 20:10:00,
2013-08-13 15:20:00,86.7,72.1,29.94,North,5,5.0,5.0,62,0.00,,,0.07,Wunderground v.1.15,2013-08-13 20:20:00,
2013-08-13 15:25:00,86.7,71.6,29.94,NW,310,5.0,5.0,61,0.00,,,0.07,Wunderground v.1.15,2013-08-13 20:25:00,
2013-08-13 15:30:00,86.5,71.0,29.94,NNW,329,4.0,7.0,60,0.00,,,0.07,Wunderground v.1.15,2013-08-13 20:30:00,
2013-08-13 15:35:00,86.4,71.4,29.93,NW,323,5.0,7.0,61,0.00,,,0.07,Wunderground v.1.15,2013-08-13 20:35:00,
2013-08-13 15:40:00,86.4,71.4,29.93,NNW,327,6.0,6.0,61,0.00,,,0.07,Wunderground v.1.15,2013-08-13 20:40:00,
2013-08-13 15:50:00,86.4,71.4,29.93,NNW,336,4.0,5.0,61,0.00,,,0.07,Wunderground v.1.15,2013-08-13 20:50:00,
2013-08-13 15:55:00,86.6,70.6,29.93,NNW,342,4.0,7.0,59,0.00,,,0.07,Wunderground v.1.15,2013-08-13 20:55:00,
2013-08-13 16:00:00,86.8,70.8,29.93,NNW,336,5.0,9.0,59,0.00,,,0.07,Wunderground v.1.15,2013-08-13 21:00:00,
2013-08-13 16:05:00,86.9,70.3,29.93,NW,323,6.0,9.0,58,0.00,,,0.07,Wunderground v.1.15,2013-08-13 21:05:00,
2013-08-13 16:15:00,87.2,69.6,29.92,WNW,298,5.0,7.0,56,0.00,,,0.07,Wunderground v.1.15,2013-08-13 21:15:00,
2013-08-13 16:25:00,87.6,69.4,29.92,NNW,345,5.0,10.0,55,0.00,,,0.07,Wunderground v.1.15,2013-08-13 21:25:00,
2013-08-13 16:30:00,87.6,68.9,29.92,NNW,338,5.0,5.0,54,0.00,,,0.07,Wunderground v.1.15,2013-08-13 21:30:00,
2013-08-13 16:35:00,87.5,68.8,29.92,NNW,348,5.0,5.0,54,0.00,,,0.07,Wunderground v.1.15,2013-08-13 21:35:00,
2013-08-13 16:40:00,87.7,68.4,29.92,North,355,5.0,6.0,53,0.00,,,0.07,Wunderground v.1.15,2013-08-13 21:40:00,
2013-08-13 16:45:00,87.6,69.4,29.92,NNW,332,5.0,6.0,55,0.00,,,0.07,Wunderground v.1.15,2013-08-13 21:45:00,
2013-08-13 16:55:00,88.0,70.9,29.92,WNW,293,4.0,7.0,57,0.00,,,0.07,Wunderground v.1.15,2013-08-13 21:55:00,
2013-08-13 17:00:00,88.1,70.9,29.92,NW,319,4.0,7.0,57,0.00,,,0.07,Wunderground v.1.15,2013-08-13 22:00:00,
2013-08-13 17:05:00,87.9,70.2,29.92,NNW,328,5.0,7.0,56,0.00,,,0.07,Wunderground v.1.15,2013-08-13 22:05:00,
2013-08-13 17:15:00,87.0,69.9,29.92,North,360,5.0,12.0,57,0.00,,,0.07,Wunderground v.1.15,2013-08-13 22:15:00,
2013-08-13 17:20:00,86.7,70.2,29.92,NNW,340,7.0,7.0,58,0.00,,,0.07,Wunderground v.1.15,2013-08-13 22:20:00,
2013-08-13 17:30:00,86.8,70.2,29.92,North,5,6.0,6.0,58,0.00,,,0.07,Wunderground v.1.15,2013-08-13 22:30:00,
2013-08-13 17:35:00,87.0,70.4,29.92,NNW,348,5.0,6.0,58,0.00,,,0.07,Wunderground v.1.15,2013-08-13 22:35:00,
2013-08-13 17:40:00,87.0,70.4,29.92,North,360,5.0,5.0,58,0.00,,,0.07,Wunderground v.1.15,2013-08-13 22:40:00,
2013-08-13 17:50:00,87.2,71.1,29.92,NNW,340,4.0,7.0,59,0.00,,,0.07,Wunderground v.1.15,2013-08-13 22:50:00,
2013-08-13 17:55:00,87.0,69.9,29.93,North,5,6.0,8.0,57,0.00,,,0.07,Wunderground v.1.15,2013-08-13 22:55:00,
2013-08-13 18:00:00,86.6,70.6,29.93,NNW,334,6.0,6.0,59,0.00,,,0.07,Wunderground v.1.15,2013-08-13 23:00:00,
2013-08-13 18:05:00,86.3,70.3,29.93,NNW,343,5.0,6.0,59,0.00,,,0.07,Wunderground v.1.15,2013-08-13 23:05:00,
2013-08-13 18:10:00,86.3,70.8,29.93,NNW,342,5.0,5.0,60,0.00,,,0.07,Wunderground v.1.15,2013-08-13 23:10:00,
2013-08-13 18:15:00,86.3,70.8,29.93,North,5,5.0,9.0,60,0.00,,,0.07,Wunderground v.1.15,2013-08-13 23:15:00,
2013-08-13 18:25:00,85.2,71.2,29.93,North,11,8.0,8.0,63,0.00,,,0.07,Wunderground v.1.15,2013-08-13 23:25:00,
2013-08-13 18:30:00,84.5,71.0,29.93,NNE,13,8.0,8.0,64,0.00,,,0.07,Wunderground v.1.15,2013-08-13 23:30:00,
2013-08-13 18:35:00,84.5,71.0,29.93,North,360,7.0,8.0,64,0.00,,,0.07,Wunderground v.1.15,2013-08-13 23:35:00,
2013-08-13 18:40:00,84.4,70.9,29.93,North,5,7.0,11.0,64,0.00,,,0.07,Wunderground v.1.15,2013-08-13 23:40:00,
2013-08-13 18:45:00,84.4,70.9,29.93,North,360,7.0,11.0,64,0.00,,,0.07,Wunderground v.1.15,2013-08-13 23:45:00,
2013-08-13 18:50:00,84.3,70.8,29.93,NNE,16,7.0,7.0,64,0.00,,,0.07,Wunderground v.1.15,2013-08-13 23:50:00,
2013-08-13 18:55:00,84.2,70.7,29.93,North,11,6.0,7.0,64,0.00,,,0.07,Wunderground v.1.15,2013-08-13 23:55:00,
2013-08-13 19:00:00,84.1,70.6,29.93,NNE,24,6.0,9.0,64,0.00,,,0.07,Wunderground v.1.15,2013-08-14 00:00:00,
2013-08-13 19:05:00,83.7,70.7,29.93,NE,38,7.0,9.0,65,0.00,,,0.07,Wunderground v.1.15,2013-08-14 00:05:00,
2013-08-13 19:10:00,83.4,70.8,29.93,North,10,7.0,7.0,66,0.00,,,0.07,Wunderground v.1.15,2013-08-14 00:10:00,
2013-08-13 19:20:00,83.1,71.0,29.93,North,5,7.0,7.0,67,0.00,,,0.07,Wunderground v.1.15,2013-08-14 00:20:00,
2013-08-13 19:25:00,82.9,71.3,29.94,NNE,19,6.0,7.0,68,0.00,,,0.07,Wunderground v.1.15,2013-08-14 00:25:00,
2013-08-13 19:30:00,82.7,71.1,29.94,NNE,27,5.0,5.0,68,0.00,,,0.07,Wunderground v.1.15,2013-08-14 00:30:00,
2013-08-13 19:40:00,82.0,71.2,29.94,NNE,19,6.0,6.0,70,0.00,,,0.07,Wunderground v.1.15,2013-08-14 00:40:00,
2013-08-13 19:45:00,81.8,71.5,29.94,NNE,19,6.0,6.0,71,0.00,,,0.07,Wunderground v.1.15,2013-08-14 00:45:00,
2013-08-13 19:55:00,81.8,71.5,29.95,NNE,19,5.0,7.0,71,0.00,,,0.07,Wunderground v.1.15,2013-08-14 00:55:00,
2013-08-13 20:00:00,81.5,71.2,29.95,North,11,5.0,5.0,71,0.00,,,0.07,Wunderground v.1.15,2013-08-14 01:00:00,
2013-08-13 20:05:00,81.2,71.3,29.95,NNE,12,5.0,6.0,72,0.00,,,0.07,Wunderground v.1.15,2013-08-14 01:05:00,
2013-08-13 20:10:00,81.2,71.3,29.95,NE,35,5.0,5.0,72,0.00,,,0.07,Wunderground v.1.15,2013-08-14 01:10:00,
2013-08-13 20:15:00,81.1,71.6,29.95,NE,49,4.0,5.0,73,0.00,,,0.07,Wunderground v.1.15,2013-08-14 01:15:00,
2013-08-13 20:25:00,80.9,71.4,29.95,ENE,71,3.0,4.0,73,0.00,,,0.07,Wunderground v.1.15,2013-08-14 01:25:00,
2013-08-13 20:30:00,80.8,71.3,29.95,ENE,62,2.0,3.0,73,0.00,,,0.07,Wunderground v.1.15,2013-08-14 01:30:00,
2013-08-13 20:35:00,80.7,71.6,29.95,NE,52,2.0,3.0,74,0.00,,,0.07,Wunderground v.1.15,2013-08-14 01:35:00,
2013-08-13 20:40:00,80.7,71.6,29.95,NE,52,2.0,2.0,74,0.00,,,0.07,Wunderground v.1.15,2013-08-14 01:40:00,
2013-08-13 20:45:00,80.6,71.1,29.95,NE,38,2.0,5.0,73,0.00,,,0.07,Wunderground v.1.15,2013-08-14 01:45:00,
2013-08-13 20:50:00,80.4,70.9,29.95,NE,51,3.0,6.0,73,0.00,,,0.07,Wunderground v.1.15,2013-08-14 01:50:00,
2013-08-13 21:00:00,80.2,70.8,29.96,NNE,26,5.0,5.0,73,0.00,,,0.07,Wunderground v.1.15,2013-08-14 02:00:00,
2013-08-13 21:05:00,80.1,70.7,29.96,NE,38,4.0,6.0,73,0.00,,,0.07,Wunderground v.1.15,2013-08-14 02:05:00,
2013-08-13 21:10:00,79.9,70.9,29.96,NE,51,4.0,4.0,74,0.00,,,0.07,Wunderground v.1.15,2013-08-14 02:10:00,
2013-08-13 21:15:00,79.5,70.9,29.96,NE,41,4.0,4.0,75,0.00,,,0.07,Wunderground v.1.15,2013-08-14 02:15:00,
2013-08-13 21:20:00,79.2,71.0,29.96,ENE,61,4.0,4.0,76,0.00,,,0.07,Wunderground v.1.15,2013-08-14 02:20:00,
2013-08-13 21:25:00,79.1,70.9,29.96,NE,43,3.0,4.0,76,0.00,,,0.07,Wunderground v.1.15,2013-08-14 02:25:00,
2013-08-13 21:35:00,78.8,71.0,29.97,NNE,26,4.0,4.0,77,0.00,,,0.07,Wunderground v.1.15,2013-08-14 02:35:00,
2013-08-13 21:40:00,78.7,70.9,29.97,NE,42,4.0,4.0,77,0.00,,,0.07,Wunderground v.1.15,2013-08-14 02:40:00,
2013-08-13 21:45:00,78.6,70.8,29.97,NNE,31,4.0,6.0,77,0.00,,,0.07,Wunderground v.1.15,2013-08-14 02:45:00,
2013-08-13 21:55:00,78.4,71.0,29.97,NE,56,3.0,7.0,78,0.00,,,0.07,Wunderground v.1.15,2013-08-14 02:55:00,
2013-08-13 22:00:00,78.3,70.9,29.97,ENE,65,4.0,4.0,78,0.00,,,0.07,Wunderground v.1.15,2013-08-14 03:00:00,
2013-08-13 22:05:00,78.1,70.7,29.97,NE,49,5.0,5.0,78,0.00,,,0.07,Wunderground v.1.15,2013-08-14 03:05:00,
2013-08-13 22:15:00,77.9,70.9,29.98,NE,53,4.0,4.0,79,0.00,,,0.07,Wunderground v.1.15,2013-08-14 03:15:00,
2013-08-13 22:20:00,77.7,71.0,29.98,NE,55,5.0,5.0,80,0.00,,,0.07,Wunderground v.1.15,2013-08-14 03:20:00,
2013-08-13 22:25:00,77.5,70.8,29.98,NE,51,5.0,5.0,80,0.00,,,0.07,Wunderground v.1.15,2013-08-14 03:25:00,
2013-08-13 22:35:00,77.4,71.1,29.98,ENE,57,4.0,4.0,81,0.00,,,0.07,Wunderground v.1.15,2013-08-14 03:35:00,
2013-08-13 22:40:00,77.2,70.9,29.98,NE,48,4.0,5.0,81,0.00,,,0.07,Wunderground v.1.15,2013-08-14 03:40:00,
2013-08-13 22:45:00,77.2,70.9,29.98,NE,46,4.0,5.0,81,0.00,,,0.07,Wunderground v.1.15,2013-08-14 03:45:00,
2013-08-13 22:50:00,77.2,71.3,29.98,NE,53,3.0,4.0,82,0.00,,,0.07,Wunderground v.1.15,2013-08-14 03:50:00,
2013-08-13 22:55:00,77.1,71.2,29.99,ENE,60,3.0,4.0,82,0.00,,,0.07,Wunderground v.1.15,2013-08-14 03:55:00,
2013-08-13 23:00:00,76.9,71.0,29.99,NNE,28,4.0,4.0,82,0.00,,,0.07,Wunderground v.1.15,2013-08-14 04:00:00,
2013-08-13 23:05:00,76.6,71.0,29.99,ENE,61,4.0,7.0,83,0.00,,,0.07,Wunderground v.1.15,2013-08-14 04:05:00,
2013-08-13 23:10:00,76.5,70.9,29.99,NE,43,4.0,4.0,83,0.00,,,0.07,Wunderground v.1.15,2013-08-14 04:10:00,
2013-08-13 23:15:00,76.4,70.9,29.99,NNE,20,5.0,5.0,83,0.00,,,0.07,Wunderground v.1.15,2013-08-14 04:15:00,
2013-08-13 23:20:00,76.3,71.1,29.99,NE,43,4.0,4.0,84,0.00,,,0.07,Wunderground v.1.15,2013-08-14 04:20:00,
2013-08-13 23:30:00,76.4,71.2,29.99,NNE,26,4.0,5.0,84,0.00,,,0.07,Wunderground v.1.15,2013-08-14 04:30:00,
2013-08-13 23:35:00,76.4,71.2,29.99,North,360,5.0,5.0,84,0.00,,,0.07,Wunderground v.1.15,2013-08-14 04:35:00,
2013-08-13 23:40:00,76.2,71.0,29.99,NE,44,5.0,5.0,84,0.00,,,0.07,Wunderground v.1.15,2013-08-14 04:40:00,
2013-08-13 23:45:00,76.2,71.4,29.99,NE,36,5.0,5.0,85,0.00,,,0.07,Wunderground v.1.15,2013-08-14 04:45:00,
2013-08-13 23:50:00,76.1,71.3,29.99,NNE,25,4.0,4.0,85,0.00,,,0.07,Wunderground v.1.15,2013-08-14 04:50:00,
2013-08-13 23:55:00,76.0,71.2,29.99,NE,34,4.0,4.0,85,0.00,,,0.07,Wunderground v.1.15,2013-08-14 04:55:00,